Time;durP1;ratioP1;P1;durP2;ratioP2;P2;SDS_P1;SDS_P2;PMS_P1;PMS_P2;Temp;Humidity;BMP_temperature;BMP_pressure;BME280_temperature;BME280_humidity;BME280_pressure;Samples;Min_cycle;Max_cycle;Signal;HPM_P1;HPM_P2
2022/11/28 00:00:15;;;;;;;12.13;7.70;;;5.50;99.90;;;;;;5052949;28;20579;-88
2022/11/28 00:02:41;;;;;;;7.15;5.78;;;5.50;99.90;;;;;;5050420;28;20318;-87
2022/11/28 00:05:09;;;;;;;10.80;6.30;;;5.50;99.90;;;;;;5052827;28;20323;-88
2022/11/28 00:07:35;;;;;;;11.57;7.45;;;5.50;99.90;;;;;;5056981;28;20644;-87
2022/11/28 00:10:00;;;;;;;8.20;6.40;;;5.50;99.90;;;;;;5048398;28;20192;-87
2022/11/28 00:12:27;;;;;;;10.60;5.80;;;5.50;99.90;;;;;;5062896;28;20223;-88
2022/11/28 00:14:53;;;;;;;7.60;5.30;;;5.60;99.90;;;;;;5049222;28;20284;-87
2022/11/28 00:17:18;;;;;;;9.53;6.23;;;5.60;99.90;;;;;;5050687;28;20261;-88
2022/11/28 00:19:44;;;;;;;9.73;5.60;;;5.60;99.90;;;;;;5055345;28;20447;-88
2022/11/28 00:22:10;;;;;;;9.90;5.53;;;5.70;99.90;;;;;;5047989;28;20207;-86
2022/11/28 00:24:35;;;;;;;9.87;4.77;;;5.70;99.90;;;;;;5053965;28;20200;-88
2022/11/28 00:27:01;;;;;;;10.93;6.87;;;5.70;99.90;;;;;;5056976;28;20620;-88
2022/11/28 00:29:27;;;;;;;8.57;5.40;;;;;;;;;;5048174;28;20668;-88
2022/11/28 00:31:52;;;;;;;11.80;6.17;;;5.80;99.90;;;;;;5054971;28;20205;-88
2022/11/28 00:34:18;;;;;;;8.83;5.53;;;;;;;;;;5056645;28;20435;-87
2022/11/28 00:36:45;;;;;;;11.10;6.20;;;5.70;99.90;;;;;;5053836;28;20777;-87
2022/11/28 00:39:12;;;;;;;8.38;6.07;;;5.70;99.90;;;;;;5057902;28;20963;-87
2022/11/28 00:41:37;;;;;;;6.82;5.10;;;5.70;99.90;;;;;;5054435;28;20235;-88
2022/11/28 00:44:03;;;;;;;7.90;5.43;;;5.60;99.90;;;;;;5046588;28;20180;-87
2022/11/28 00:46:29;;;;;;;13.83;6.07;;;5.60;99.90;;;;;;5069807;28;20204;-88
2022/11/28 00:48:56;;;;;;;7.97;5.17;;;5.60;99.90;;;;;;5047634;28;20209;-86
2022/11/28 00:51:25;;;;;;;9.63;5.90;;;5.60;99.90;;;;;;5056510;28;20200;-88
2022/11/28 00:53:53;;;;;;;6.82;5.38;;;5.50;99.90;;;;;;5048079;28;20711;-87
2022/11/28 00:56:22;;;;;;;6.22;5.05;;;5.50;99.90;;;;;;5050580;28;20192;-87
2022/11/28 00:58:48;;;;;;;9.40;5.45;;;5.50;99.90;;;;;;5043068;28;20173;-85
2022/11/28 01:01:21;;;;;;;11.23;5.63;;;5.50;99.90;;;;;;5049049;28;20200;-86
2022/11/28 01:03:48;;;;;;;10.27;5.45;;;5.30;99.90;;;;;;5054975;28;20205;-87
2022/11/28 01:06:34;;;;;;;9.95;4.50;;;5.40;99.90;;;;;;5057318;28;20292;-88
2022/11/28 01:09:04;;;;;;;6.75;4.50;;;5.40;99.90;;;;;;5070948;28;20176;-88
2022/11/28 01:11:30;;;;;;;6.95;4.75;;;5.40;99.90;;;;;;5050344;28;20205;-87
2022/11/28 01:13:57;;;;;;;10.83;5.40;;;5.30;99.90;;;;;;5053339;28;21306;-89
2022/11/28 01:16:23;;;;;;;5.90;4.78;;;5.20;99.90;;;;;;5048324;28;22332;-86
2022/11/28 01:18:49;;;;;;;11.33;5.60;;;;;;;;;;5051074;28;20184;-87
2022/11/28 01:21:15;;;;;;;7.60;5.00;;;5.20;99.90;;;;;;5055057;28;20613;-86
2022/11/28 01:23:40;;;;;;;5.80;4.83;;;5.20;99.90;;;;;;5049532;28;20438;-87
2022/11/28 01:26:10;;;;;;;8.97;5.60;;;5.20;99.90;;;;;;5060220;28;20192;-87
2022/11/28 01:28:35;;;;;;;6.75;5.22;;;5.20;99.90;;;;;;5053611;28;20196;-89
2022/11/28 01:31:10;;;;;;;7.13;4.80;;;5.10;99.90;;;;;;5062949;28;20185;-86
2022/11/28 01:33:35;;;;;;;6.63;4.45;;;5.10;99.90;;;;;;5049452;28;20183;-87
2022/11/28 01:36:01;;;;;;;6.93;5.20;;;5.10;99.90;;;;;;5055834;28;20196;-86
2022/11/28 01:38:27;;;;;;;8.07;5.20;;;;;;;;;;5050206;28;20187;-88
2022/11/28 01:40:54;;;;;;;10.02;5.60;;;5.10;99.90;;;;;;5052853;28;20827;-87
2022/11/28 01:43:21;;;;;;;10.98;6.20;;;5.10;99.90;;;;;;5045281;28;20188;-87
2022/11/28 01:45:46;;;;;;;7.75;5.63;;;5.10;99.90;;;;;;5050106;28;20192;-88
2022/11/28 01:48:17;;;;;;;6.80;4.77;;;5.00;99.90;;;;;;5052584;28;20184;-88
2022/11/28 01:50:44;;;;;;;9.30;5.28;;;5.10;99.90;;;;;;5050947;28;20177;-87
2022/11/28 01:53:11;;;;;;;8.18;5.75;;;5.10;99.90;;;;;;5048419;28;20185;-88
2022/11/28 01:55:45;;;;;;;7.35;5.82;;;5.10;99.90;;;;;;5050102;28;20196;-87
2022/11/28 01:58:11;;;;;;;7.38;5.47;;;5.10;99.90;;;;;;5061609;28;21901;-89
2022/11/28 02:00:37;;;;;;;7.75;5.85;;;5.00;99.90;;;;;;5045069;28;20314;-87
2022/11/28 02:03:03;;;;;;;9.13;5.63;;;;;;;;;;5054439;28;20208;-89
2022/11/28 02:05:29;;;;;;;8.10;5.13;;;5.20;99.90;;;;;;5049062;28;20442;-88
2022/11/28 02:07:55;;;;;;;9.10;5.90;;;5.20;99.90;;;;;;5047781;28;20450;-88
2022/11/28 02:10:31;;;;;;;9.80;5.10;;;5.20;99.90;;;;;;5048196;28;20185;-87
2022/11/28 02:13:20;;;;;;;10.68;7.20;;;5.20;99.90;;;;;;5058955;28;20216;-88
2022/11/28 02:15:52;;;;;;;13.93;6.35;;;5.20;99.90;;;;;;5057599;28;20216;-87
2022/11/28 02:18:39;;;;;;;9.93;6.50;;;5.20;99.90;;;;;;5047873;28;20188;-87
2022/11/28 02:21:27;;;;;;;6.70;5.00;;;5.30;99.90;;;;;;5048915;28;20283;-87
2022/11/28 02:24:07;;;;;;;6.82;5.45;;;5.30;99.90;;;;;;5011086;28;20196;-89
2022/11/28 02:27:19;;;;;;;6.22;5.05;;;5.30;99.90;;;;;;5045643;28;20238;-88
2022/11/28 02:29:59;;;;;;;7.53;5.80;;;5.20;99.90;;;;;;5039449;28;20303;-89
2022/11/28 02:32:34;;;;;;;6.68;4.82;;;5.20;99.90;;;;;;5051833;28;20206;-87
2022/11/28 02:35:21;;;;;;;11.13;6.45;;;5.10;99.90;;;;;;5063292;28;20748;-88
2022/11/28 02:37:54;;;;;;;6.95;5.15;;;5.10;99.90;;;;;;5047924;28;20200;-89
2022/11/28 02:40:36;;;;;;;8.20;4.97;;;5.10;99.90;;;;;;5049673;28;20177;-87
2022/11/28 02:43:11;;;;;;;5.80;5.20;;;5.30;99.90;;;;;;5057589;28;20207;-88
2022/11/28 02:45:54;;;;;;;5.95;4.60;;;5.30;99.90;;;;;;5047820;28;20610;-88
2022/11/28 02:48:30;;;;;;;8.73;5.07;;;5.40;99.90;;;;;;5053831;28;20180;-89
2022/11/28 02:51:26;;;;;;;12.30;5.80;;;5.20;99.90;;;;;;5053653;28;20180;-87
2022/11/28 02:53:53;;;;;;;9.50;6.22;;;5.20;99.90;;;;;;5048683;28;20173;-88
2022/11/28 02:56:21;;;;;;;12.32;6.80;;;5.00;99.90;;;;;;5048093;28;20609;-89
2022/11/28 02:58:47;;;;;;;8.23;6.05;;;4.80;99.90;;;;;;5059682;28;20172;-87
2022/11/28 03:01:26;;;;;;;7.60;5.97;;;4.70;99.90;;;;;;5051016;28;20189;-87
2022/11/28 03:04:26;;;;;;;10.10;6.53;;;4.60;99.90;;;;;;5052250;28;20234;-88
2022/11/28 03:07:04;;;;;;;9.82;6.75;;;4.10;99.90;;;;;;5054666;28;20219;-87
2022/11/28 03:09:48;;;;;;;11.77;7.28;;;3.90;99.90;;;;;;5047285;28;20323;-88
2022/11/28 03:12:26;;;;;;;13.70;7.72;;;4.00;99.90;;;;;;5062147;28;20266;-87
2022/11/28 03:14:51;;;;;;;9.30;7.18;;;4.10;99.90;;;;;;5057616;28;20744;-87
2022/11/28 03:17:34;;;;;;;11.47;6.67;;;4.20;99.90;;;;;;5063119;28;20196;-88
2022/11/28 03:20:13;;;;;;;11.32;7.82;;;4.10;99.90;;;;;;5047948;28;20717;-87
2022/11/28 03:22:56;;;;;;;10.82;7.65;;;4.10;99.90;;;;;;5051069;28;20776;-89
2022/11/28 03:25:33;;;;;;;10.05;6.63;;;4.10;99.90;;;;;;5063300;28;20280;-88
2022/11/28 03:28:10;;;;;;;9.45;5.95;;;4.00;99.90;;;;;;5055868;28;20445;-89
2022/11/28 03:30:43;;;;;;;11.27;8.00;;;3.80;99.90;;;;;;5051713;28;20180;-89
2022/11/28 03:33:12;;;;;;;10.73;7.53;;;3.70;99.90;;;;;;5046504;28;20575;-87
2022/11/28 03:35:44;;;;;;;12.23;8.15;;;3.70;99.90;;;;;;5051518;28;20204;-88
2022/11/28 03:38:16;;;;;;;12.10;7.63;;;3.80;99.90;;;;;;5047129;28;20169;-88
2022/11/28 03:40:46;;;;;;;14.35;7.35;;;3.90;99.90;;;;;;5050951;28;20181;-88
2022/11/28 03:43:16;;;;;;;10.85;8.18;;;3.90;99.90;;;;;;5059222;28;20219;-87
2022/11/28 03:45:48;;;;;;;11.90;8.60;;;3.90;99.90;;;;;;5059800;28;20265;-88
2022/11/28 03:48:37;;;;;;;14.77;7.70;;;3.90;99.90;;;;;;5069715;28;20204;-87
2022/11/28 03:51:18;;;;;;;12.88;8.05;;;4.00;99.90;;;;;;5055086;28;20711;-87
2022/11/28 03:53:59;;;;;;;11.20;7.40;;;4.00;99.90;;;;;;5071681;28;20203;-88
2022/11/28 03:56:51;;;;;;;13.00;8.13;;;4.00;99.90;;;;;;5064324;28;20203;-87
2022/11/28 03:59:31;;;;;;;9.90;7.22;;;4.00;99.90;;;;;;5057998;28;20264;-89
2022/11/28 04:02:08;;;;;;;10.90;7.32;;;3.90;99.90;;;;;;5058517;28;20284;-88
2022/11/28 04:04:39;;;;;;;11.43;7.72;;;3.80;99.90;;;;;;5055988;28;20228;-88
2022/11/28 04:07:30;;;;;;;12.23;8.15;;;3.70;99.90;;;;;;5055521;28;20181;-88
2022/11/28 04:10:14;;;;;;;13.35;7.05;;;3.50;99.90;;;;;;5058160;28;20184;-87
2022/11/28 04:13:20;;;;;;;12.50;8.18;;;3.50;99.90;;;;;;5058298;28;20236;-87
2022/11/28 04:16:04;;;;;;;13.35;7.97;;;3.50;99.90;;;;;;5058999;28;20205;-89
2022/11/28 04:18:37;;;;;;;13.57;8.48;;;3.60;99.90;;;;;;5067054;28;20219;-86
2022/11/28 04:21:24;;;;;;;10.27;7.32;;;3.70;99.90;;;;;;5055695;28;20718;-87
2022/11/28 04:23:52;;;;;;;12.30;7.32;;;3.70;99.90;;;;;;5057384;28;20173;-87
2022/11/28 04:26:34;;;;;;;11.65;7.88;;;3.80;99.90;;;;;;5057005;28;20273;-88
2022/11/28 04:29:05;;;;;;;10.43;7.15;;;4.00;99.90;;;;;;5056517;28;20263;-89
2022/11/28 04:31:31;;;;;;;12.05;8.13;;;4.00;99.90;;;;;;5058918;28;20239;-89
2022/11/28 04:34:06;;;;;;;11.77;8.32;;;4.00;99.90;;;;;;5053643;28;20259;-88
2022/11/28 04:36:36;;;;;;;12.18;8.10;;;3.90;99.90;;;;;;5064404;28;20704;-86
2022/11/28 04:39:04;;;;;;;11.93;8.10;;;3.90;99.90;;;;;;5050415;28;20549;-88
2022/11/28 04:41:36;;;;;;;12.60;8.02;;;3.80;99.90;;;;;;5055382;28;20204;-89
2022/11/28 04:44:12;;;;;;;10.80;7.72;;;3.70;99.90;;;;;;5066378;28;20630;-87
2022/11/28 04:46:47;;;;;;;15.77;7.70;;;3.80;99.90;;;;;;5060818;28;20172;-88
2022/11/28 04:49:13;;;;;;;9.55;7.57;;;3.70;99.90;;;;;;5042843;28;20252;-88
2022/11/28 04:52:05;;;;;;;17.45;8.02;;;3.80;99.90;;;;;;5050576;28;20211;-87
2022/11/28 04:54:31;;;;;;;19.98;9.85;;;3.80;99.90;;;;;;5048430;28;20222;-88
2022/11/28 04:57:20;;;;;;;11.03;7.10;;;3.90;99.90;;;;;;5064972;28;20205;-87
2022/11/28 04:59:47;;;;;;;9.90;6.65;;;4.00;99.90;;;;;;5046170;28;20372;-87
2022/11/28 05:02:15;;;;;;;9.02;7.22;;;4.00;99.90;;;;;;5044771;28;20201;-88
2022/11/28 05:04:42;;;;;;;12.02;7.38;;;4.00;99.90;;;;;;5048124;28;20200;-86
2022/11/28 05:07:08;;;;;;;9.93;6.55;;;4.00;99.90;;;;;;5057553;28;20197;-88
2022/11/28 05:09:35;;;;;;;11.00;7.10;;;4.10;99.90;;;;;;5050222;28;20185;-88
2022/11/28 05:12:00;;;;;;;10.40;6.70;;;4.10;99.90;;;;;;5057916;28;20243;-86
2022/11/28 05:14:26;;;;;;;10.87;6.70;;;;;;;;;;5050696;28;20208;-87
2022/11/28 05:16:52;;;;;;;8.73;6.37;;;3.70;99.90;;;;;;5045514;28;20264;-86
2022/11/28 05:19:18;;;;;;;9.07;5.73;;;3.60;99.90;;;;;;5050705;28;20416;-87
2022/11/28 05:21:43;;;;;;;8.83;6.77;;;3.50;99.90;;;;;;5045806;28;20745;-88
2022/11/28 05:24:09;;;;;;;11.03;6.40;;;3.40;99.90;;;;;;5048273;28;20457;-86
2022/11/28 05:26:36;;;;;;;8.67;5.90;;;3.40;99.90;;;;;;5050409;28;20215;-88
2022/11/28 05:29:03;;;;;;;7.90;5.57;;;3.60;99.90;;;;;;5047701;28;21010;-87
2022/11/28 05:31:29;;;;;;;8.98;6.05;;;3.60;99.90;;;;;;5047874;28;20204;-85
2022/11/28 05:33:55;;;;;;;7.53;6.07;;;3.60;99.90;;;;;;5044798;28;20215;-87
2022/11/28 05:36:21;;;;;;;6.70;5.55;;;3.60;99.90;;;;;;5050004;28;20565;-86
2022/11/28 05:38:47;;;;;;;8.40;7.13;;;3.50;99.90;;;;;;5043946;28;20318;-86
2022/11/28 05:41:25;;;;;;;15.77;6.63;;;3.50;99.90;;;;;;5046190;28;20200;-87
2022/11/28 05:43:51;;;;;;;8.95;6.82;;;3.60;99.90;;;;;;5046291;28;20211;-86
2022/11/28 05:46:18;;;;;;;10.25;6.97;;;3.70;99.90;;;;;;5046690;28;20817;-85
2022/11/28 05:48:43;;;;;;;7.32;5.55;;;3.60;99.90;;;;;;5046814;28;20185;-84
2022/11/28 05:51:09;;;;;;;9.60;6.40;;;3.50;99.90;;;;;;5044801;28;20208;-87
2022/11/28 05:53:35;;;;;;;13.23;7.30;;;3.60;99.90;;;;;;5052349;28;20180;-88
2022/11/28 05:56:09;;;;;;;9.90;6.10;;;3.60;99.90;;;;;;5051596;28;20197;-86
2022/11/28 05:58:36;;;;;;;9.40;6.15;;;3.60;99.90;;;;;;5047187;28;20443;-87
2022/11/28 06:01:16;;;;;;;8.65;6.45;;;3.70;99.90;;;;;;5048806;28;20173;-87
2022/11/28 06:03:42;;;;;;;11.68;6.32;;;3.70;99.90;;;;;;5043960;28;20582;-87
2022/11/28 06:06:18;;;;;;;7.85;5.75;;;3.50;99.90;;;;;;5048220;28;20189;-87
2022/11/28 06:08:45;;;;;;;9.50;5.40;;;3.50;99.90;;;;;;5048437;28;20203;-87
2022/11/28 06:11:13;;;;;;;8.60;6.15;;;3.40;99.90;;;;;;5049705;28;22133;-86
2022/11/28 06:13:39;;;;;;;10.00;5.70;;;3.30;99.90;;;;;;5042690;28;20192;-88
2022/11/28 06:16:13;;;;;;;10.07;5.55;;;3.30;99.90;;;;;;5042676;28;20289;-88
2022/11/28 06:18:39;;;;;;;17.90;5.57;;;3.30;99.90;;;;;;5043157;28;22397;-86
2022/11/28 06:21:06;;;;;;;10.40;6.07;;;3.40;99.90;;;;;;5056559;28;20562;-87
2022/11/28 06:23:32;;;;;;;7.72;5.40;;;3.40;99.90;;;;;;5044945;28;20719;-86
2022/11/28 06:26:10;;;;;;;10.20;7.00;;;3.50;99.90;;;;;;5081890;22;20223;-82
2022/11/28 06:28:36;;;;;;;13.32;7.30;;;3.60;99.90;;;;;;5057369;28;20195;-84
2022/11/28 06:31:02;;;;;;;12.77;7.30;;;3.70;99.90;;;;;;5067988;28;20184;-84
2022/11/28 06:33:28;;;;;;;12.32;6.35;;;3.60;99.90;;;;;;5046050;28;20440;-84
2022/11/28 06:36:01;;;;;;;12.60;7.60;;;3.70;99.90;;;;;;5041824;28;20652;-84
2022/11/28 06:38:28;;;;;;;7.80;5.38;;;3.80;99.90;;;;;;5024991;28;20788;-82
2022/11/28 06:40:58;;;;;;;7.82;5.80;;;3.70;99.90;;;;;;5046684;28;20203;-82
2022/11/28 06:43:25;;;;;;;7.30;5.93;;;3.80;99.90;;;;;;5028917;28;20177;-84
2022/11/28 06:45:50;;;;;;;16.55;9.15;;;3.70;99.90;;;;;;5023826;28;20223;-83
2022/11/28 06:48:16;;;;;;;12.90;9.10;;;3.70;99.90;;;;;;5020071;28;20190;-82
2022/11/28 06:50:42;;;;;;;17.30;10.57;;;;;;;;;;5022221;28;20443;-84
2022/11/28 06:53:07;;;;;;;16.70;11.47;;;3.90;99.90;;;;;;5023535;28;20188;-84
2022/11/28 06:55:33;;;;;;;33.50;15.60;;;4.10;99.90;;;;;;5025174;28;20936;-81
2022/11/28 06:57:58;;;;;;;12.67;6.40;;;4.00;99.90;;;;;;5022114;28;21905;-85
2022/11/28 07:00:24;;;;;;;8.70;5.77;;;3.90;99.90;;;;;;5025748;28;20185;-83
2022/11/28 07:02:50;;;;;;;10.90;6.10;;;3.80;99.90;;;;;;5022482;28;20188;-84
2022/11/28 07:05:15;;;;;;;11.90;5.67;;;3.80;99.90;;;;;;5021703;28;20800;-84
2022/11/28 07:07:42;;;;;;;9.37;5.63;;;3.80;99.90;;;;;;5030605;28;20685;-85
2022/11/28 07:10:08;;;;;;;11.32;7.40;;;3.80;99.90;;;;;;5041505;28;20193;-85
2022/11/28 07:12:33;;;;;;;17.73;9.47;;;3.70;99.90;;;;;;5031034;28;20214;-83
2022/11/28 07:14:59;;;;;;;13.80;9.50;;;3.60;99.90;;;;;;5054142;28;20371;-87
2022/11/28 07:17:24;;;;;;;19.23;10.37;;;3.50;99.90;;;;;;5039932;28;20213;-84
2022/11/28 07:19:50;;;;;;;19.60;10.00;;;3.40;99.90;;;;;;5031401;28;20177;-86
2022/11/28 07:22:15;;;;;;;15.13;8.83;;;3.40;99.90;;;;;;5034905;28;20177;-86
2022/11/28 07:24:41;;;;;;;18.07;10.30;;;;;;;;;;5025433;28;20729;-85
2022/11/28 07:27:07;;;;;;;17.63;11.13;;;3.50;99.90;;;;;;5031931;28;20193;-86
2022/11/28 07:29:35;;;;;;;15.17;9.43;;;3.60;99.90;;;;;;5035270;28;20432;-81
2022/11/28 07:32:06;;;;;;;16.90;10.60;;;3.70;99.90;;;;;;5029658;28;20181;-85
2022/11/28 07:34:33;;;;;;;32.05;17.50;;;3.80;99.90;;;;;;5028753;28;20284;-82
2022/11/28 07:36:58;;;;;;;26.60;14.50;;;3.80;99.90;;;;;;5044137;28;20682;-86
2022/11/28 07:39:24;;;;;;;20.40;11.33;;;3.90;99.90;;;;;;5029593;28;20182;-83
2022/11/28 07:41:49;;;;;;;23.07;14.70;;;4.00;99.90;;;;;;5035189;28;20258;-84
2022/11/28 07:44:18;;;;;;;19.77;12.67;;;4.10;99.90;;;;;;5044859;28;20188;-84
2022/11/28 07:46:44;;;;;;;20.73;13.80;;;4.10;99.90;;;;;;5028982;28;20614;-84
2022/11/28 07:49:11;;;;;;;25.48;13.00;;;4.20;99.90;;;;;;5037302;28;20184;-84
2022/11/28 07:51:37;;;;;;;21.60;13.07;;;4.40;99.90;;;;;;5036341;28;20186;-84
2022/11/28 07:54:03;;;;;;;17.10;11.13;;;4.50;99.90;;;;;;5031683;28;20186;-85
2022/11/28 07:56:32;;;;;;;18.80;11.05;;;4.60;99.90;;;;;;5027913;28;20624;-85
2022/11/28 07:58:59;;;;;;;22.42;13.38;;;4.70;99.90;;;;;;5032846;28;20273;-82
2022/11/28 08:01:27;;;;;;;14.65;9.85;;;4.70;99.90;;;;;;5038052;28;20715;-84
2022/11/28 08:03:52;;;;;;;14.55;9.23;;;4.70;99.90;;;;;;5033947;28;20189;-83
2022/11/28 08:06:21;;;;;;;13.57;8.47;;;4.40;99.90;;;;;;5027294;28;20934;-83
2022/11/28 08:08:48;;;;;;;16.42;9.60;;;4.30;99.90;;;;;;5027263;28;20181;-85
2022/11/28 08:11:15;;;;;;;15.02;9.75;;;4.30;99.90;;;;;;5027681;28;20205;-84
2022/11/28 08:13:41;;;;;;;15.98;9.25;;;4.20;99.90;;;;;;5034086;28;20185;-85
2022/11/28 08:16:10;;;;;;;14.70;9.43;;;4.20;99.90;;;;;;5027954;28;20213;-84
2022/11/28 08:18:36;;;;;;;13.82;8.82;;;4.20;99.90;;;;;;5031043;28;20199;-84
2022/11/28 08:21:07;;;;;;;12.47;9.07;;;4.20;99.90;;;;;;5026664;28;20185;-84
2022/11/28 08:23:34;;;;;;;15.55;9.77;;;4.40;99.90;;;;;;5031308;28;20450;-83
2022/11/28 08:26:04;;;;;;;18.00;11.30;;;4.40;99.90;;;;;;5038462;28;20223;-81
2022/11/28 08:28:30;;;;;;;18.27;10.50;;;4.30;99.90;;;;;;5040362;28;20185;-86
2022/11/28 08:30:56;;;;;;;14.27;8.48;;;4.30;99.90;;;;;;5050606;28;20185;-83
2022/11/28 08:33:23;;;;;;;19.17;10.17;;;4.30;99.90;;;;;;5033137;28;20185;-83
2022/11/28 08:35:49;;;;;;;17.40;10.73;;;4.30;99.90;;;;;;5037421;28;20561;-84
2022/11/28 08:38:15;;;;;;;17.50;11.38;;;4.50;99.90;;;;;;5022758;28;20173;-83
2022/11/28 08:40:40;;;;;;;21.93;13.23;;;4.50;99.90;;;;;;5029359;28;20224;-85
2022/11/28 08:43:06;;;;;;;19.23;11.30;;;4.50;99.90;;;;;;5023740;28;20185;-84
2022/11/28 08:45:35;;;;;;;22.50;12.40;;;4.50;99.90;;;;;;5026673;28;20209;-83
2022/11/28 08:48:01;;;;;;;17.73;10.82;;;4.60;99.90;;;;;;5040703;28;20181;-82
2022/11/28 08:50:26;;;;;;;26.53;11.10;;;4.70;99.90;;;;;;5035695;28;20576;-84
2022/11/28 08:52:52;;;;;;;24.63;12.10;;;4.70;99.90;;;;;;5031093;28;20189;-81
2022/11/28 08:55:17;;;;;;;19.27;11.50;;;4.70;99.90;;;;;;5041410;28;20219;-84
2022/11/28 08:57:43;;;;;;;17.00;11.57;;;4.80;99.90;;;;;;5033619;28;20190;-85
2022/11/28 09:00:09;;;;;;;18.77;10.93;;;4.90;99.90;;;;;;5032457;28;20203;-85
2022/11/28 09:02:35;;;;;;;20.73;11.25;;;4.90;99.90;;;;;;5037696;28;20674;-84
2022/11/28 09:05:00;;;;;;;17.40;10.90;;;5.00;99.90;;;;;;5029589;28;20197;-85
2022/11/28 09:07:26;;;;;;;18.80;10.93;;;5.00;99.90;;;;;;5031671;28;20185;-82
2022/11/28 09:09:51;;;;;;;20.90;11.10;;;5.00;99.90;;;;;;5035172;28;20181;-83
2022/11/28 09:12:17;;;;;;;17.80;10.60;;;5.00;99.90;;;;;;5026979;28;20180;-84
2022/11/28 09:14:42;;;;;;;22.00;12.50;;;5.00;99.90;;;;;;5025764;28;20185;-83
2022/11/28 09:17:08;;;;;;;17.07;10.87;;;5.00;99.90;;;;;;5037544;28;20215;-84
2022/11/28 09:19:34;;;;;;;19.20;12.50;;;5.20;99.90;;;;;;5026898;28;20219;-84
2022/11/28 09:22:00;;;;;;;23.10;12.27;;;5.30;99.90;;;;;;5029988;28;20753;-82
2022/11/28 09:24:26;;;;;;;19.27;11.50;;;5.50;99.90;;;;;;5039103;28;20210;-83
2022/11/28 09:26:51;;;;;;;21.03;12.20;;;5.70;99.90;;;;;;5023417;28;20385;-84
2022/11/28 09:29:17;;;;;;;23.90;11.30;;;5.60;99.90;;;;;;5035314;28;20185;-85
2022/11/28 09:31:42;;;;;;;27.43;12.23;;;5.60;99.90;;;;;;5038737;28;20831;-83
2022/11/28 09:34:08;;;;;;;17.60;11.37;;;5.70;99.90;;;;;;5037123;28;20277;-82
2022/11/28 09:36:34;;;;;;;15.70;10.97;;;5.70;99.90;;;;;;5028400;28;20220;-84
2022/11/28 09:39:00;;;;;;;19.53;12.30;;;5.50;99.90;;;;;;5037846;28;20291;-85
2022/11/28 09:41:38;;;;;;;17.08;11.13;;;5.40;99.90;;;;;;5040537;28;20177;-83
2022/11/28 09:44:36;;;;;;;23.05;11.85;;;5.40;99.90;;;;;;5046876;28;20204;-85
2022/11/28 09:47:11;;;;;;;23.83;11.88;;;5.50;99.90;;;;;;5040285;28;20185;-86
2022/11/28 09:49:48;;;;;;;18.40;11.18;;;5.50;99.90;;;;;;5029445;28;20195;-87
2022/11/28 09:52:47;;;;;;;18.45;11.38;;;5.70;99.90;;;;;;5031260;28;20190;-84
2022/11/28 09:55:30;;;;;;;23.05;11.70;;;5.90;99.90;;;;;;5027329;28;20696;-84
2022/11/28 09:57:56;;;;;;;18.92;12.90;;;6.10;99.90;;;;;;5028856;28;20177;-85
2022/11/28 10:00:35;;;;;;;19.60;13.03;;;6.10;99.90;;;;;;5041225;28;20196;-84
2022/11/28 10:03:11;;;;;;;22.75;13.88;;;6.10;99.90;;;;;;5027016;28;20435;-83
2022/11/28 10:05:41;;;;;;;20.35;12.15;;;6.20;99.90;;;;;;5027103;28;20222;-82
2022/11/28 10:08:32;;;;;;;19.90;11.10;;;6.20;99.90;;;;;;5037796;28;20615;-84
2022/11/28 10:11:13;;;;;;;19.60;11.80;;;6.20;99.90;;;;;;5028828;28;20265;-85
2022/11/28 10:13:58;;;;;;;21.30;12.10;;;6.30;99.90;;;;;;5022021;28;20190;-86
2022/11/28 10:16:54;;;;;;;19.85;11.25;;;6.20;99.90;;;;;;5023819;28;20212;-84
2022/11/28 10:19:39;;;;;;;22.10;12.07;;;6.40;99.90;;;;;;5027553;28;20180;-83
2022/11/28 10:22:10;;;;;;;21.45;11.05;;;6.50;99.90;;;;;;5030718;28;20186;-83
2022/11/28 10:24:45;;;;;;;23.13;12.80;;;6.30;99.90;;;;;;5033761;28;20230;-83
2022/11/28 10:27:13;;;;;;;18.65;12.02;;;6.40;99.90;;;;;;5023043;28;20231;-84
2022/11/28 10:29:44;;;;;;;18.13;12.10;;;6.40;99.90;;;;;;5035461;28;20188;-82
2022/11/28 10:32:15;;;;;;;20.92;12.52;;;6.50;99.90;;;;;;5027128;28;20213;-84
2022/11/28 10:34:57;;;;;;;20.88;12.57;;;6.40;99.90;;;;;;5021176;28;20185;-84
2022/11/28 10:37:31;;;;;;;19.73;11.32;;;6.40;99.90;;;;;;5023060;28;20314;-84
2022/11/28 10:40:19;;;;;;;18.77;11.68;;;6.50;99.90;;;;;;5027255;28;20254;-85
2022/11/28 10:43:08;;;;;;;19.52;12.60;;;6.60;99.90;;;;;;5038121;28;20181;-84
2022/11/28 10:45:57;;;;;;;19.92;12.48;;;6.70;99.90;;;;;;5029133;28;20201;-84
2022/11/28 10:48:36;;;;;;;18.88;11.10;;;7.20;99.90;;;;;;5034399;28;20209;-83
2022/11/28 10:51:19;;;;;;;17.10;11.27;;;7.50;99.90;;;;;;5031487;28;20700;-86
2022/11/28 10:54:31;;;;;;;15.02;10.18;;;7.70;99.90;;;;;;5029401;28;20256;-84
2022/11/28 10:57:10;;;;;;;19.50;12.07;;;7.90;99.90;;;;;;5040148;28;20368;-82
2022/11/28 10:59:42;;;;;;;19.30;12.30;;;8.10;99.90;;;;;;5039304;28;20250;-84
2022/11/28 11:02:28;;;;;;;18.90;12.38;;;8.20;99.90;;;;;;5055605;28;20267;-84
2022/11/28 11:04:54;;;;;;;27.70;13.63;;;8.30;99.90;;;;;;5038405;28;20216;-86
2022/11/28 11:07:28;;;;;;;20.03;12.50;;;8.50;99.90;;;;;;5036818;28;20189;-82
2022/11/28 11:09:56;;;;;;;22.02;12.63;;;8.60;99.90;;;;;;5028469;28;20184;-85
2022/11/28 11:12:31;;;;;;;21.80;15.43;;;8.60;99.90;;;;;;5032517;28;20406;-84
2022/11/28 11:14:56;;;;;;;20.17;13.30;;;8.70;99.90;;;;;;5028519;28;20622;-83
2022/11/28 11:17:36;;;;;;;20.33;12.37;;;8.60;99.90;;;;;;5036455;28;20251;-86
2022/11/28 11:20:32;;;;;;;24.50;13.82;;;8.40;99.90;;;;;;5032532;28;20192;-85
2022/11/28 11:23:11;;;;;;;22.83;12.75;;;8.30;99.90;;;;;;5028738;28;21008;-86
2022/11/28 11:25:43;;;;;;;24.38;14.75;;;8.40;99.90;;;;;;5026831;28;20217;-83
2022/11/28 11:28:30;;;;;;;22.13;14.27;;;8.40;99.90;;;;;;5039400;28;20193;-86
2022/11/28 11:31:01;;;;;;;20.20;12.63;;;8.60;99.90;;;;;;5048093;28;20221;-85
2022/11/28 11:33:33;;;;;;;21.40;13.95;;;8.30;99.90;;;;;;5045071;28;20217;-83
2022/11/28 11:36:01;;;;;;;21.08;12.48;;;8.10;99.90;;;;;;5037818;28;20690;-82
2022/11/28 11:38:29;;;;;;;25.25;15.35;;;7.90;99.90;;;;;;5058722;28;20204;-83
2022/11/28 11:40:55;;;;;;;23.85;13.88;;;8.20;99.90;;;;;;5028165;28;20328;-84
2022/11/28 11:43:31;;;;;;;24.13;13.47;;;8.40;99.90;;;;;;5031015;28;20304;-85
2022/11/28 11:46:11;;;;;;;20.17;12.27;;;8.40;99.90;;;;;;5039171;28;20473;-86
2022/11/28 11:48:53;;;;;;;18.92;13.02;;;8.40;99.90;;;;;;5035357;28;20235;-85
2022/11/28 11:51:21;;;;;;;21.88;12.55;;;8.30;99.90;;;;;;5025995;28;20220;-83
2022/11/28 11:53:47;;;;;;;18.55;13.45;;;8.10;99.90;;;;;;5040922;28;20185;-84
2022/11/28 11:56:13;;;;;;;23.10;13.27;;;8.00;99.90;;;;;;5041789;28;20270;-81
2022/11/28 11:58:45;;;;;;;22.40;12.95;;;8.10;99.90;;;;;;5048553;28;20185;-84
2022/11/28 12:01:12;;;;;;;25.75;14.63;;;8.00;99.90;;;;;;5036289;28;20300;-84
2022/11/28 12:03:52;;;;;;;22.35;14.27;;;8.00;99.90;;;;;;5042484;28;20194;-84
2022/11/28 12:06:29;;;;;;;23.73;12.05;;;7.90;99.90;;;;;;5050294;28;20220;-84
2022/11/28 12:09:29;;;;;;;19.52;12.02;;;7.90;99.90;;;;;;5040075;28;20185;-82
2022/11/28 12:12:00;;;;;;;20.70;12.48;;;7.90;99.90;;;;;;5030246;28;20181;-87
2022/11/28 12:14:32;;;;;;;26.08;14.15;;;7.90;99.90;;;;;;5041071;28;20569;-84
2022/11/28 12:17:22;;;;;;;22.73;13.05;;;8.10;99.90;;;;;;5046369;28;20240;-84
2022/11/28 12:20:05;;;;;;;26.33;13.93;;;8.20;99.90;;;;;;5047034;28;20232;-82
2022/11/28 12:22:40;;;;;;;20.85;13.07;;;8.30;99.90;;;;;;5032198;28;20272;-82
2022/11/28 12:25:32;;;;;;;24.15;14.07;;;8.40;99.90;;;;;;5027491;28;20220;-83
2022/11/28 12:28:01;;;;;;;19.45;13.95;;;8.40;99.90;;;;;;5031603;28;20179;-84
2022/11/28 12:30:45;;;;;;;22.55;13.45;;;8.50;99.90;;;;;;5076284;22;20308;-85
2022/11/28 12:33:46;;;;;;;20.42;13.40;;;8.50;99.90;;;;;;5057465;28;20187;-86
2022/11/28 12:36:44;;;;;;;21.85;14.45;;;8.40;99.90;;;;;;5040814;28;20213;-85
2022/11/28 12:39:30;;;;;;;21.95;13.40;;;8.60;99.90;;;;;;5047981;28;20186;-84
2022/11/28 12:42:05;;;;;;;20.40;12.90;;;8.60;99.90;;;;;;5037379;28;20174;-85
2022/11/28 12:45:10;;;;;;;23.83;14.63;;;8.60;99.90;;;;;;5036361;28;20211;-85
2022/11/28 12:47:50;;;;;;;22.73;14.93;;;8.60;99.90;;;;;;5033784;28;20223;-85
2022/11/28 12:50:30;;;;;;;22.02;13.18;;;8.60;99.90;;;;;;5034689;28;20639;-84
2022/11/28 12:53:16;;;;;;;20.70;13.30;;;8.60;99.90;;;;;;5027645;28;20246;-85
2022/11/28 12:56:05;;;;;;;21.00;12.30;;;8.50;99.90;;;;;;4996488;28;20220;-83
2022/11/28 12:58:50;;;;;;;23.42;13.80;;;8.40;99.90;;;;;;5040458;28;20584;-85
2022/11/28 13:01:46;;;;;;;21.70;12.80;;;8.30;99.90;;;;;;5027447;28;20279;-85
2022/11/28 13:04:25;;;;;;;23.15;13.27;;;8.20;99.90;;;;;;5038033;28;20182;-87
2022/11/28 13:07:06;;;;;;;20.77;13.13;;;8.30;99.90;;;;;;5033166;28;20182;-85
2022/11/28 13:09:37;;;;;;;24.58;14.95;;;8.30;99.90;;;;;;5027590;28;20193;-83
2022/11/28 13:12:38;;;;;;;21.70;13.68;;;8.50;99.90;;;;;;5026170;28;20197;-85
2022/11/28 13:15:29;;;;;;;23.83;13.40;;;8.60;99.90;;;;;;5000070;28;20209;-84